Time;durP1;ratioP1;P1;durP2;ratioP2;P2;SDS_P1;SDS_P2;PMS_P1;PMS_P2;Temp;Humidity;BMP_temperature;BMP_pressure;BME280_temperature;BME280_humidity;BME280_pressure;Samples;Min_cycle;Max_cycle;Signal;HPM_P1;HPM_P2
2022/11/01 00:00:17;;;;;;;79.93;56.05;;;19.50;80.60;;;;;;4944766;28;93414;-50
2022/11/01 00:02:43;;;;;;;78.03;55.28;;;19.50;80.60;;;;;;4944268;28;91421;-51
2022/11/01 00:05:09;;;;;;;77.20;55.67;;;19.50;80.50;;;;;;4938579;28;91895;-49
2022/11/01 00:07:34;;;;;;;77.65;55.22;;;19.50;80.50;;;;;;4943858;28;91388;-49
2022/11/01 00:10:00;;;;;;;76.82;55.03;;;19.50;80.40;;;;;;4940709;28;91003;-53
2022/11/01 00:12:26;;;;;;;76.95;55.08;;;19.50;80.40;;;;;;4943462;28;90331;-52
2022/11/01 00:14:51;;;;;;;78.18;55.22;;;19.50;80.50;;;;;;4946888;28;91491;-49
2022/11/01 00:17:17;;;;;;;78.90;55.20;;;19.50;80.40;;;;;;4939568;28;92136;-48
2022/11/01 00:19:43;;;;;;;77.85;55.45;;;19.50;80.30;;;;;;4933831;28;90572;-50
2022/11/01 00:22:08;;;;;;;77.97;55.25;;;19.50;80.30;;;;;;4929135;28;92880;-50
2022/11/01 00:24:34;;;;;;;77.82;54.58;;;19.50;80.30;;;;;;4951175;28;90956;-53
2022/11/01 00:27:00;;;;;;;78.78;54.95;;;19.50;80.30;;;;;;4934429;28;90550;-53
2022/11/01 00:29:26;;;;;;;77.53;55.28;;;19.50;80.30;;;;;;4904881;28;93428;-53
2022/11/01 00:31:51;;;;;;;77.30;55.05;;;19.50;80.30;;;;;;4907703;28;93525;-51
2022/11/01 00:34:18;;;;;;;78.40;54.90;;;19.50;80.40;;;;;;4933143;28;90907;-52
2022/11/01 00:36:44;;;;;;;77.50;55.42;;;19.50;80.40;;;;;;4922875;28;90723;-51
2022/11/01 00:39:13;;;;;;;76.13;54.95;;;19.50;80.50;;;;;;4926150;28;94276;-52
2022/11/01 00:41:39;;;;;;;76.65;54.60;;;19.50;80.40;;;;;;4936169;28;94836;-52
2022/11/01 00:44:04;;;;;;;77.22;55.08;;;19.50;80.50;;;;;;4936255;28;93212;-48
2022/11/01 00:46:31;;;;;;;77.75;54.40;;;19.40;80.30;;;;;;4937119;28;90320;-51
2022/11/01 00:48:57;;;;;;;77.13;54.53;;;19.40;80.40;;;;;;4943315;28;90357;-52
2022/11/01 00:51:23;;;;;;;78.38;54.45;;;19.40;80.40;;;;;;4922396;28;91099;-49
2022/11/01 00:53:49;;;;;;;77.53;54.83;;;19.40;80.30;;;;;;4935668;28;90586;-50
2022/11/01 00:56:14;;;;;;;77.05;54.75;;;19.40;80.40;;;;;;4927010;28;93506;-48
2022/11/01 00:58:40;;;;;;;76.18;54.25;;;19.40;80.30;;;;;;4948154;28;90556;-49
2022/11/01 01:01:05;;;;;;;76.35;53.72;;;19.40;80.40;;;;;;4925250;28;90202;-51
2022/11/01 01:03:31;;;;;;;77.50;54.33;;;19.40;80.40;;;;;;4935907;28;90830;-52
2022/11/01 01:05:58;;;;;;;75.53;54.28;;;19.40;80.50;;;;;;4933936;28;91411;-49
2022/11/01 01:08:25;;;;;;;74.72;53.97;;;19.30;80.40;;;;;;4937419;28;90837;-52
2022/11/01 01:10:51;;;;;;;76.35;54.17;;;19.30;80.40;;;;;;4927568;28;94905;-53
2022/11/01 01:13:17;;;;;;;76.00;54.90;;;19.30;80.50;;;;;;4937111;28;90386;-52
2022/11/01 01:15:43;;;;;;;76.05;54.30;;;19.30;80.60;;;;;;4936485;28;94059;-53
2022/11/01 01:18:09;;;;;;;75.57;54.10;;;19.30;80.40;;;;;;4940302;28;94991;-49
2022/11/01 01:20:35;;;;;;;75.72;53.35;;;19.30;80.50;;;;;;4923876;28;90970;-52
2022/11/01 01:23:01;;;;;;;75.68;54.08;;;19.20;80.50;;;;;;4931739;28;94011;-49
2022/11/01 01:25:26;;;;;;;75.32;53.70;;;19.20;80.40;;;;;;4939271;28;90261;-51
2022/11/01 01:27:52;;;;;;;74.55;53.63;;;19.20;80.60;;;;;;4933821;28;92093;-52
2022/11/01 01:30:18;;;;;;;74.78;53.83;;;19.20;80.60;;;;;;4930869;28;91935;-51
2022/11/01 01:32:43;;;;;;;75.20;53.60;;;19.20;80.60;;;;;;4939145;28;91546;-49
2022/11/01 01:35:09;;;;;;;75.63;54.70;;;19.20;80.60;;;;;;4936609;28;89944;-49
2022/11/01 01:37:35;;;;;;;76.15;53.63;;;19.20;80.60;;;;;;4940777;28;90661;-51
2022/11/01 01:40:01;;;;;;;75.13;53.55;;;19.20;80.70;;;;;;4935064;28;91247;-52
2022/11/01 01:42:38;;;;;;;74.82;53.72;;;19.20;80.60;;;;;;4949485;28;91598;-50
2022/11/01 01:45:04;;;;;;;74.40;53.67;;;19.10;80.60;;;;;;4944381;28;90257;-50
2022/11/01 01:47:33;;;;;;;74.57;53.25;;;19.10;80.60;;;;;;4946610;28;88878;-53
2022/11/01 01:50:09;;;;;;;74.32;53.42;;;19.10;80.70;;;;;;4946839;28;95368;-52
2022/11/01 01:52:50;;;;;;;74.05;53.17;;;19.10;80.70;;;;;;4941699;28;90421;-54
2022/11/01 01:55:25;;;;;;;74.33;53.70;;;19.10;80.70;;;;;;4942381;28;92413;-50
2022/11/01 01:57:51;;;;;;;73.97;53.72;;;19.10;80.70;;;;;;4946212;28;90248;-51
2022/11/01 02:00:17;;;;;;;74.45;53.65;;;19.10;80.80;;;;;;4945550;28;95885;-53
2022/11/01 02:02:43;;;;;;;73.75;53.35;;;19.10;80.80;;;;;;4901427;28;1212792;-50
2022/11/01 02:05:18;;;;;;;74.93;53.47;;;19.10;80.90;;;;;;4941833;28;89932;-50
2022/11/01 02:07:45;;;;;;;74.95;53.28;;;19.10;80.90;;;;;;4949409;28;94658;-49
2022/11/01 02:10:13;;;;;;;73.72;53.20;;;19.10;80.90;;;;;;4941514;28;91005;-49
2022/11/01 02:12:45;;;;;;;73.53;53.15;;;19.00;80.90;;;;;;4952960;28;90757;-53
2022/11/01 02:15:12;;;;;;;74.90;52.80;;;19.00;80.90;;;;;;4944547;28;90400;-49
2022/11/01 02:18:08;;;;;;;73.78;52.88;;;19.00;80.90;;;;;;4939942;28;91675;-51
2022/11/01 02:20:49;;;;;;;72.97;52.60;;;19.00;81.00;;;;;;4939478;28;92595;-51
2022/11/01 02:23:38;;;;;;;;;;;19.00;81.00;;;;;;4943334;28;90800;-47
2022/11/01 02:26:42;;;;;;;74.10;53.05;;;19.00;81.10;;;;;;4945118;28;92409;-51
2022/11/01 02:29:47;;;;;;;73.25;53.17;;;19.00;81.00;;;;;;4925343;28;91538;-51
2022/11/01 02:32:27;;;;;;;73.07;52.78;;;18.90;81.00;;;;;;4908036;28;91016;-49
2022/11/01 02:35:11;;;;;;;72.95;52.72;;;18.90;81.00;;;;;;4945995;28;91919;-52
2022/11/01 02:37:48;;;;;;;73.25;52.67;;;19.00;81.10;;;;;;4949361;28;90026;-49
2022/11/01 02:40:21;;;;;;;74.32;52.58;;;18.90;81.00;;;;;;4943683;28;90678;-52
2022/11/01 02:42:51;;;;;;;73.50;52.97;;;18.90;81.00;;;;;;4945214;28;92979;-52
2022/11/01 02:45:49;;;;;;;72.93;52.58;;;18.90;80.90;;;;;;4945788;28;92958;-53
2022/11/01 02:48:19;;;;;;;73.13;52.80;;;18.90;81.00;;;;;;4934285;28;90587;-51
2022/11/01 02:50:54;;;;;;;73.28;52.97;;;18.90;81.00;;;;;;4943086;28;90309;-52
2022/11/01 02:53:20;;;;;;;73.38;52.75;;;18.80;81.00;;;;;;4941377;28;90948;-51
2022/11/01 02:55:46;;;;;;;72.85;52.25;;;18.80;80.90;;;;;;4943334;28;94463;-52
2022/11/01 02:58:20;;;;;;;73.95;52.58;;;18.80;80.90;;;;;;4941970;28;90117;-49
2022/11/01 03:00:46;;;;;;;73.07;52.63;;;18.80;81.10;;;;;;4945844;28;94499;-51
2022/11/01 03:03:22;;;;;;;73.55;52.20;;;18.80;81.00;;;;;;4946330;28;90512;-50
2022/11/01 03:05:51;;;;;;;73.53;52.17;;;18.80;81.10;;;;;;4948911;28;94364;-52
2022/11/01 03:08:24;;;;;;;73.05;52.75;;;18.80;81.10;;;;;;4940153;28;90197;-49
2022/11/01 03:11:05;;;;;;;72.70;52.45;;;18.80;81.10;;;;;;4943600;28;91919;-51
2022/11/01 03:13:49;;;;;;;72.37;52.60;;;18.80;81.30;;;;;;4939455;28;91417;-53
2022/11/01 03:16:14;;;;;;;73.60;52.75;;;18.80;81.20;;;;;;4941721;28;93921;-51
2022/11/01 03:18:54;;;;;;;72.95;52.92;;;18.80;81.20;;;;;;4944454;28;90873;-51
2022/11/01 03:21:25;;;;;;;71.93;52.17;;;18.80;81.20;;;;;;4947940;28;90245;-54
2022/11/01 03:23:58;;;;;;;72.60;52.15;;;18.80;81.30;;;;;;4949811;28;90606;-49
2022/11/01 03:26:26;;;;;;;73.25;52.15;;;18.70;81.00;;;;;;4940619;28;90658;-48
2022/11/01 03:28:58;;;;;;;72.25;51.97;;;18.70;81.20;;;;;;4945338;28;90573;-52
2022/11/01 03:31:32;;;;;;;73.50;52.15;;;18.70;80.90;;;;;;4948141;28;89305;-51
2022/11/01 03:34:04;;;;;;;74.28;52.17;;;18.70;81.00;;;;;;4939470;28;94693;-50
2022/11/01 03:36:35;;;;;;;73.30;52.47;;;18.70;80.90;;;;;;4948882;28;89904;-48
2022/11/01 03:39:27;;;;;;;73.63;52.50;;;18.70;81.20;;;;;;4940925;28;94011;-49
2022/11/01 03:42:00;;;;;;;73.05;52.03;;;18.70;81.10;;;;;;4945085;28;90991;-51
2022/11/01 03:44:31;;;;;;;71.80;51.92;;;18.70;81.10;;;;;;4938056;28;94344;-51
2022/11/01 03:46:57;;;;;;;73.03;52.75;;;18.70;81.10;;;;;;4940596;28;90855;-51
2022/11/01 03:49:23;;;;;;;72.28;52.47;;;18.70;81.20;;;;;;4944533;28;90709;-50
2022/11/01 03:51:48;;;;;;;72.43;51.85;;;18.70;81.80;;;;;;4940219;28;89999;-47
2022/11/01 03:54:14;;;;;;;72.90;52.33;;;18.60;81.20;;;;;;4937190;28;92169;-50
2022/11/01 03:56:40;;;;;;;72.43;51.83;;;18.70;81.20;;;;;;4949035;28;89805;-51
2022/11/01 03:59:09;;;;;;;76.22;52.08;;;18.60;81.20;;;;;;4939034;28;89901;-51
2022/11/01 04:01:35;;;;;;;72.45;52.08;;;18.60;81.20;;;;;;4938442;28;89973;-51
2022/11/01 04:04:01;;;;;;;71.85;51.97;;;18.60;81.30;;;;;;4944436;28;91236;-48
2022/11/01 04:06:27;;;;;;;72.35;52.22;;;18.60;81.30;;;;;;4948584;28;92324;-49
2022/11/01 04:08:52;;;;;;;72.72;52.13;;;18.60;81.30;;;;;;4936814;28;90313;-50
2022/11/01 04:11:18;;;;;;;71.82;51.88;;;18.60;81.40;;;;;;4940968;28;90672;-49
2022/11/01 04:13:46;;;;;;;72.07;51.92;;;18.60;81.30;;;;;;4940393;28;90943;-50
2022/11/01 04:21:40;;;;;;;71.85;51.88;;;18.60;81.40;;;;;;4946097;28;89582;-51
2022/11/01 04:24:07;;;;;;;72.15;51.95;;;18.50;81.30;;;;;;4933598;28;90698;-52
2022/11/01 04:26:33;;;;;;;72.18;52.15;;;18.50;81.30;;;;;;4941080;28;90433;-51
2022/11/01 04:28:59;;;;;;;71.85;51.85;;;18.50;81.50;;;;;;4946292;28;91265;-52
2022/11/01 04:31:27;;;;;;;71.72;51.58;;;18.50;81.20;;;;;;4942051;28;90002;-47
2022/11/01 04:33:54;;;;;;;72.40;52.05;;;18.50;81.50;;;;;;4942793;28;91991;-53
2022/11/01 04:36:20;;;;;;;72.45;52.13;;;18.50;81.30;;;;;;4945669;28;91800;-47
2022/11/01 04:38:50;;;;;;;72.00;51.67;;;18.50;81.50;;;;;;4945388;28;89763;-53
2022/11/01 04:41:18;;;;;;;72.00;51.90;;;18.50;81.50;;;;;;4946467;28;89879;-47
2022/11/01 04:43:47;;;;;;;72.90;51.15;;;18.50;81.60;;;;;;4942877;28;92007;-51
2022/11/01 04:46:13;;;;;;;73.10;51.92;;;18.40;81.20;;;;;;4945211;28;92539;-53
2022/11/01 04:48:39;;;;;;;70.97;51.30;;;18.40;81.50;;;;;;4946327;28;90447;-50
2022/11/01 04:51:05;;;;;;;72.75;52.05;;;18.50;81.50;;;;;;4938425;28;90077;-52
2022/11/01 04:53:30;;;;;;;72.57;52.13;;;18.40;81.40;;;;;;4939903;28;92429;-48
2022/11/01 04:55:56;;;;;;;71.78;51.75;;;18.40;81.50;;;;;;4943853;28;91248;-49
2022/11/01 04:58:22;;;;;;;72.53;51.88;;;18.40;81.50;;;;;;4944941;28;90116;-48
2022/11/01 05:00:47;;;;;;;72.05;51.97;;;18.40;81.50;;;;;;4951358;28;89947;-49
2022/11/01 05:03:13;;;;;;;72.47;52.40;;;18.40;81.60;;;;;;4943684;28;91074;-51
2022/11/01 05:05:38;;;;;;;71.95;51.90;;;18.40;81.60;;;;;;4949646;28;90110;-51
2022/11/01 05:08:10;;;;;;;71.90;51.63;;;18.30;81.60;;;;;;4946969;28;90783;-48
2022/11/01 05:10:39;;;;;;;71.07;51.75;;;18.30;81.60;;;;;;4942904;28;89262;-50
2022/11/01 05:13:05;;;;;;;73.03;52.00;;;18.30;81.60;;;;;;4945111;28;90264;-55
2022/11/01 05:15:31;;;;;;;72.78;52.22;;;18.30;81.50;;;;;;4948810;28;90963;-53
2022/11/01 05:17:57;;;;;;;71.82;51.72;;;18.30;81.50;;;;;;4947501;28;91502;-51
2022/11/01 05:20:23;;;;;;;71.63;51.80;;;18.30;81.70;;;;;;4946924;28;90167;-51
2022/11/01 05:22:49;;;;;;;71.35;51.63;;;18.30;81.60;;;;;;4944773;28;90870;-49
2022/11/01 05:25:16;;;;;;;70.97;51.55;;;18.30;81.60;;;;;;4947498;28;91010;-49
2022/11/01 05:27:42;;;;;;;71.88;51.83;;;18.30;81.70;;;;;;4943287;28;91696;-52
2022/11/01 05:30:09;;;;;;;72.15;51.05;;;18.30;81.70;;;;;;4945393;28;90375;-48
2022/11/01 05:32:36;;;;;;;71.78;51.58;;;18.30;81.80;;;;;;4945900;28;94274;-50
2022/11/01 05:35:03;;;;;;;71.82;51.60;;;18.20;82.40;;;;;;4948028;28;89319;-53
2022/11/01 05:37:29;;;;;;;71.32;51.65;;;18.30;81.80;;;;;;4953127;28;89989;-53
2022/11/01 05:39:54;;;;;;;71.50;51.53;;;18.30;81.80;;;;;;4946419;28;94872;-53
2022/11/01 05:42:20;;;;;;;71.10;51.70;;;18.20;81.60;;;;;;4948414;28;91492;-50
2022/11/01 05:44:46;;;;;;;71.50;51.38;;;18.20;81.70;;;;;;4941650;28;90177;-51
2022/11/01 05:47:11;;;;;;;72.15;51.50;;;18.20;81.80;;;;;;4948411;28;91353;-53
2022/11/01 05:49:37;;;;;;;71.50;51.78;;;18.20;81.80;;;;;;4944123;28;90150;-51
2022/11/01 05:52:03;;;;;;;71.65;51.50;;;18.20;82.50;;;;;;4950061;28;91134;-49
2022/11/01 05:54:28;;;;;;;72.75;51.92;;;18.20;81.70;;;;;;4940419;28;90436;-50
2022/11/01 05:56:54;;;;;;;72.13;51.53;;;18.10;81.70;;;;;;4946846;28;90359;-50
2022/11/01 05:59:20;;;;;;;74.18;51.65;;;18.10;81.70;;;;;;4947320;28;89702;-52
2022/11/01 06:01:45;;;;;;;71.97;51.38;;;18.10;81.80;;;;;;4945577;28;90365;-53
2022/11/01 06:04:11;;;;;;;72.43;51.50;;;18.10;81.80;;;;;;4939558;28;92551;-52
2022/11/01 06:06:37;;;;;;;72.22;52.10;;;18.10;81.90;;;;;;4942961;28;94418;-51
2022/11/01 06:09:02;;;;;;;71.28;51.25;;;18.10;81.80;;;;;;4941258;28;90443;-54
2022/11/01 06:11:28;;;;;;;70.47;51.13;;;18.10;81.70;;;;;;4943225;28;91427;-50
2022/11/01 06:13:57;;;;;;;72.00;51.85;;;18.10;81.80;;;;;;4946291;28;89953;-50
2022/11/01 06:16:27;;;;;;;72.30;51.63;;;18.10;81.80;;;;;;4943943;28;92620;-49
2022/11/01 06:18:53;;;;;;;71.45;51.65;;;18.10;81.80;;;;;;4949382;28;90973;-50
2022/11/01 06:21:22;;;;;;;71.65;51.45;;;18.10;81.90;;;;;;4942250;28;90078;-53
2022/11/01 06:23:49;;;;;;;72.13;51.30;;;18.10;81.80;;;;;;4939524;28;89813;-49
2022/11/01 06:26:16;;;;;;;71.15;51.20;;;18.10;81.70;;;;;;4937741;28;91826;-49
2022/11/01 06:28:42;;;;;;;70.85;51.75;;;18.00;81.70;;;;;;4939532;28;91861;-51
2022/11/01 06:31:08;;;;;;;72.72;51.85;;;18.00;82.00;;;;;;4934619;28;91239;-52
2022/11/01 06:33:33;;;;;;;73.45;51.53;;;18.00;81.80;;;;;;4935968;28;95105;-51
2022/11/01 06:36:00;;;;;;;70.70;51.53;;;18.00;81.90;;;;;;4939627;28;90911;-51
2022/11/01 06:38:26;;;;;;;71.05;51.17;;;18.00;81.90;;;;;;4938824;28;91174;-49
2022/11/01 06:40:52;;;;;;;71.03;51.13;;;18.00;81.60;;;;;;4943745;28;90267;-51
2022/11/01 06:43:17;;;;;;;71.60;51.47;;;18.00;82.00;;;;;;4941477;28;92936;-51
2022/11/01 06:45:43;;;;;;;72.07;51.22;;;18.00;81.80;;;;;;4945124;28;91112;-49
2022/11/01 06:48:09;;;;;;;71.65;51.58;;;18.00;81.90;;;;;;4945976;28;89650;-50
2022/11/01 06:50:34;;;;;;;71.00;51.25;;;18.00;81.90;;;;;;4943876;28;90761;-50
2022/11/01 06:53:00;;;;;;;70.63;51.13;;;18.00;82.00;;;;;;4944528;28;93945;-51
2022/11/01 06:55:28;;;;;;;71.25;51.42;;;18.00;82.10;;;;;;4950094;28;91542;-51
2022/11/01 06:57:58;;;;;;;71.78;51.30;;;18.00;81.90;;;;;;4937052;28;90201;-52
2022/11/01 07:00:25;;;;;;;70.78;51.20;;;18.00;81.90;;;;;;4937961;28;90865;-50
2022/11/01 07:03:03;;;;;;;71.55;51.13;;;18.00;81.90;;;;;;4932266;28;92101;-49
2022/11/01 07:05:30;;;;;;;71.35;51.85;;;17.90;81.70;;;;;;4937841;28;90264;-52
2022/11/01 07:07:56;;;;;;;71.13;51.63;;;17.90;81.80;;;;;;4934641;28;91378;-49
2022/11/01 07:10:22;;;;;;;71.38;51.58;;;17.90;81.80;;;;;;4936548;28;91282;-52
2022/11/01 07:12:48;;;;;;;72.85;51.67;;;17.90;81.70;;;;;;4943214;28;92841;-53
2022/11/01 07:15:13;;;;;;;71.60;51.95;;;17.90;82.00;;;;;;4945277;28;90872;-53
2022/11/01 07:17:39;;;;;;;70.78;51.08;;;17.90;81.70;;;;;;4950772;28;90160;-52
2022/11/01 07:20:05;;;;;;;71.95;51.53;;;17.90;81.80;;;;;;4940235;28;96936;-49
2022/11/01 07:22:31;;;;;;;71.80;51.60;;;17.90;81.50;;;;;;4943885;28;92777;-50
2022/11/01 07:24:57;;;;;;;70.80;51.13;;;17.90;81.70;;;;;;4941613;28;94962;-52
2022/11/01 07:27:22;;;;;;;71.13;51.00;;;17.90;81.70;;;;;;4945769;28;90300;-53
2022/11/01 07:29:48;;;;;;;71.05;51.30;;;17.90;81.70;;;;;;4950322;28;93557;-52
2022/11/01 07:32:14;;;;;;;71.25;51.72;;;17.90;81.80;;;;;;4947186;28;90265;-51
2022/11/01 07:34:39;;;;;;;71.80;51.08;;;18.00;81.70;;;;;;4945399;28;90386;-52
2022/11/01 07:37:05;;;;;;;72.18;51.25;;;17.90;81.60;;;;;;4941453;28;90851;-52
2022/11/01 07:39:30;;;;;;;70.93;51.15;;;17.90;81.70;;;;;;4938861;28;90604;-53
2022/11/01 07:41:57;;;;;;;71.85;51.40;;;17.90;81.50;;;;;;4944963;28;90181;-52
2022/11/01 07:44:23;;;;;;;70.93;51.47;;;17.90;81.60;;;;;;4943572;28;95372;-51
2022/11/01 07:46:49;;;;;;;71.68;51.10;;;17.90;81.70;;;;;;4938216;28;90372;-52
2022/11/01 07:49:14;;;;;;;71.28;51.40;;;17.90;81.70;;;;;;4945067;28;90231;-53
2022/11/01 07:51:40;;;;;;;70.57;51.38;;;17.90;81.50;;;;;;4942801;28;91129;-53
2022/11/01 07:54:06;;;;;;;71.75;51.10;;;17.90;81.60;;;;;;4942895;28;90051;-52
2022/11/01 07:56:31;;;;;;;71.53;50.88;;;17.90;81.70;;;;;;4941434;28;91594;-52
2022/11/01 07:58:57;;;;;;;71.28;50.97;;;17.90;81.50;;;;;;4948575;28;91463;-52
2022/11/01 08:01:23;;;;;;;70.45;51.20;;;17.90;81.50;;;;;;4936813;28;92732;-53
2022/11/01 08:03:48;;;;;;;70.43;50.97;;;17.90;81.50;;;;;;4944297;28;90671;-49
2022/11/01 08:06:14;;;;;;;70.47;50.78;;;17.90;81.70;;;;;;4944753;28;91863;-52
2022/11/01 08:08:40;;;;;;;72.22;51.05;;;17.90;81.50;;;;;;4942826;28;91919;-53
2022/11/01 08:11:06;;;;;;;71.35;51.50;;;17.90;81.50;;;;;;4941993;28;91547;-51
2022/11/01 08:13:31;;;;;;;70.75;51.15;;;17.90;81.40;;;;;;4940796;28;90073;-51
2022/11/01 08:16:00;;;;;;;73.57;51.63;;;17.90;81.40;;;;;;4940424;28;91053;-50
2022/11/01 08:18:25;;;;;;;71.85;51.28;;;17.90;81.20;;;;;;4940626;28;91543;-51
2022/11/01 08:20:51;;;;;;;70.85;51.10;;;17.90;81.40;;;;;;4937476;28;94192;-52
2022/11/01 08:23:18;;;;;;;71.55;51.45;;;17.90;81.40;;;;;;4944010;28;90342;-50
2022/11/01 08:25:43;;;;;;;71.05;51.20;;;17.90;81.40;;;;;;4941831;28;92320;-50
2022/11/01 08:28:14;;;;;;;70.80;50.90;;;17.90;81.30;;;;;;4957269;28;95311;-53
2022/11/01 08:30:42;;;;;;;70.68;50.90;;;17.90;81.40;;;;;;4942103;28;90473;-49
2022/11/01 08:33:08;;;;;;;70.05;50.88;;;17.90;81.20;;;;;;4942579;28;91113;-53
2022/11/01 08:35:34;;;;;;;72.03;51.22;;;17.90;81.20;;;;;;4943146;28;90813;-50
2022/11/01 08:38:02;;;;;;;72.40;51.00;;;17.90;81.30;;;;;;4956574;28;91519;-51
2022/11/01 08:40:28;;;;;;;70.90;51.47;;;17.90;81.20;;;;;;4952241;28;94633;-52
2022/11/01 08:42:54;;;;;;;70.13;51.42;;;17.90;81.20;;;;;;4944076;28;90835;-51
2022/11/01 08:45:20;;;;;;;70.70;51.08;;;17.90;81.10;;;;;;4952004;28;90302;-49
2022/11/01 08:47:46;;;;;;;72.38;52.58;;;17.90;81.00;;;;;;4941074;28;92649;-49
2022/11/01 08:50:13;;;;;;;70.07;50.70;;;17.90;80.70;;;;;;4944588;28;89321;-52
2022/11/01 08:52:40;;;;;;;71.47;51.65;;;17.90;81.10;;;;;;4940191;28;91374;-51
2022/11/01 08:55:08;;;;;;;72.28;50.92;;;17.90;80.90;;;;;;4950618;28;90952;-52
2022/11/01 08:57:34;;;;;;;70.90;50.78;;;17.90;80.90;;;;;;4938454;28;90598;-48
2022/11/01 08:59:59;;;;;;;71.05;51.35;;;17.90;81.00;;;;;;4952004;28;91103;-51
2022/11/01 09:02:25;;;;;;;70.75;51.13;;;18.00;81.10;;;;;;4943089;28;90239;-53
2022/11/01 09:04:51;;;;;;;70.60;50.70;;;17.90;81.00;;;;;;4946116;28;93311;-48
2022/11/01 09:07:17;;;;;;;70.45;51.30;;;17.90;80.70;;;;;;4942030;28;92192;-49
2022/11/01 09:09:43;;;;;;;71.22;51.03;;;17.90;80.80;;;;;;4941612;28;94199;-51
2022/11/01 09:12:11;;;;;;;70.35;50.58;;;17.90;80.90;;;;;;4952273;28;93005;-52
2022/11/01 09:14:36;;;;;;;71.35;51.20;;;17.90;80.80;;;;;;4943770;28;93879;-50
2022/11/01 09:17:02;;;;;;;72.43;51.05;;;17.90;80.70;;;;;;4944754;28;91083;-50
2022/11/01 09:19:28;;;;;;;70.53;50.88;;;18.00;80.70;;;;;;4946705;28;92333;-49
2022/11/01 09:21:53;;;;;;;70.68;51.30;;;17.90;80.80;;;;;;4945190;28;91592;-51
2022/11/01 09:24:19;;;;;;;70.45;51.08;;;17.90;80.60;;;;;;4952811;28;89752;-49
2022/11/01 09:26:45;;;;;;;71.28;50.78;;;17.90;80.60;;;;;;4947336;28;91148;-48
2022/11/01 09:29:12;;;;;;;71.70;51.42;;;18.00;80.60;;;;;;4942204;28;90317;-53
2022/11/01 09:31:38;;;;;;;71.22;50.92;;;18.00;80.60;;;;;;4945861;28;90131;-49
2022/11/01 09:34:03;;;;;;;73.30;51.38;;;18.00;80.60;;;;;;4935207;28;90312;-49
2022/11/01 09:36:29;;;;;;;72.72;51.15;;;18.00;80.30;;;;;;4938447;28;92001;-53
2022/11/01 09:38:58;;;;;;;70.28;51.28;;;18.00;80.50;;;;;;4948685;28;90516;-47
2022/11/01 09:41:35;;;;;;;70.55;50.80;;;18.00;80.40;;;;;;4944079;28;90450;-52
2022/11/01 09:44:03;;;;;;;72.15;51.08;;;18.00;80.40;;;;;;4951250;28;96022;-51
2022/11/01 09:46:42;;;;;;;70.47;50.80;;;18.00;80.40;;;;;;4943811;28;91848;-52
2022/11/01 09:49:11;;;;;;;72.93;51.08;;;18.00;80.20;;;;;;4939991;28;90956;-52
2022/11/01 09:51:37;;;;;;;72.70;51.00;;;18.00;80.30;;;;;;4949386;28;92556;-51
2022/11/01 09:54:03;;;;;;;72.63;51.05;;;18.00;80.20;;;;;;4941586;28;92859;-49
2022/11/01 09:56:45;;;;;;;70.68;51.33;;;18.00;80.20;;;;;;4948443;28;93992;-49
2022/11/01 09:59:18;;;;;;;;;;;18.10;80.20;;;;;;4943732;28;90165;-53
2022/11/01 10:02:10;;;;;;;72.00;51.17;;;18.00;80.10;;;;;;4943362;28;90951;-51
2022/11/01 10:04:45;;;;;;;;;;;18.10;80.10;;;;;;4941190;28;89603;-51
2022/11/01 10:07:33;;;;;;;71.20;50.85;;;18.10;80.20;;;;;;4935132;28;90457;-49
2022/11/01 10:10:28;;;;;;;70.70;51.28;;;18.10;80.20;;;;;;4932758;28;92468;-51
2022/11/01 10:12:54;;;;;;;71.47;51.10;;;18.10;80.10;;;;;;4945365;28;94323;-50
2022/11/01 10:15:43;;;;;;;71.97;51.17;;;18.10;80.00;;;;;;4948425;28;91735;-52
2022/11/01 10:18:19;;;;;;;73.30;51.45;;;18.20;80.00;;;;;;4953333;28;91014;-49
2022/11/01 10:20:45;;;;;;;73.45;51.60;;;18.20;80.00;;;;;;4952608;28;90232;-52
2022/11/01 10:23:15;;;;;;;77.78;51.45;;;18.30;80.10;;;;;;4947229;28;90594;-49
2022/11/01 10:25:47;;;;;;;73.38;51.20;;;18.30;80.30;;;;;;4941269;28;89942;-49
2022/11/01 10:28:50;;;;;;;76.07;53.78;;;18.40;79.20;;;;;;4940343;28;90886;-52
2022/11/01 10:31:21;;;;;;;77.43;52.25;;;18.40;78.80;;;;;;4948437;28;89998;-53
2022/11/01 10:33:52;;;;;;;;;;;18.40;78.80;;;;;;4950363;28;91785;-53
2022/11/01 10:36:28;;;;;;;72.43;51.33;;;18.40;78.70;;;;;;4945936;28;89631;-53
2022/11/01 10:39:19;;;;;;;75.28;51.10;;;18.40;78.50;;;;;;4947303;28;91428;-53
2022/11/01 10:41:51;;;;;;;72.25;51.45;;;18.40;78.40;;;;;;4936973;28;90876;-53
2022/11/01 10:44:30;;;;;;;72.93;51.65;;;18.40;78.40;;;;;;4934803;28;90777;-52
2022/11/01 10:46:59;;;;;;;76.97;51.47;;;18.40;78.50;;;;;;4938280;28;91323;-53
2022/11/01 10:49:36;;;;;;;73.25;51.35;;;18.40;78.40;;;;;;4935736;28;91154;-51
2022/11/01 10:52:08;;;;;;;75.68;51.58;;;18.40;78.30;;;;;;4946575;28;89958;-48
2022/11/01 10:54:39;;;;;;;75.15;51.58;;;18.40;78.20;;;;;;4949951;28;93037;-49
2022/11/01 10:57:15;;;;;;;74.50;51.75;;;18.40;78.00;;;;;;4948681;28;89181;-51
2022/11/01 10:59:45;;;;;;;74.43;51.58;;;18.40;77.90;;;;;;4940717;28;91854;-53
2022/11/01 11:02:34;;;;;;;75.93;51.90;;;18.40;77.80;;;;;;4942413;28;90759;-50
2022/11/01 11:05:00;;;;;;;75.53;51.97;;;18.40;77.60;;;;;;4945057;28;90923;-53
2022/11/01 11:07:30;;;;;;;71.95;51.60;;;18.40;77.60;;;;;;4947411;28;89908;-52
2022/11/01 11:09:55;;;;;;;75.55;51.85;;;18.40;77.60;;;;;;4936515;28;91036;-53
2022/11/01 11:12:23;;;;;;;74.25;51.70;;;18.40;77.50;;;;;;4948615;28;90477;-53
2022/11/01 11:14:57;;;;;;;73.22;51.42;;;18.40;77.40;;;;;;4942641;28;92597;-53
2022/11/01 11:17:34;;;;;;;75.53;51.83;;;18.50;77.40;;;;;;4944129;28;90500;-51
2022/11/01 11:20:03;;;;;;;75.65;51.58;;;18.40;77.30;;;;;;4947148;28;90320;-50
2022/11/01 11:22:29;;;;;;;73.18;51.42;;;18.40;77.30;;;;;;4945437;28;90819;-51
2022/11/01 11:24:57;;;;;;;76.18;51.72;;;18.40;77.30;;;;;;4944664;28;91419;-51
2022/11/01 11:27:23;;;;;;;72.45;51.40;;;18.40;77.60;;;;;;4948232;28;90171;-52
2022/11/01 11:29:54;;;;;;;72.63;51.50;;;18.30;77.60;;;;;;4955349;28;92252;-52
2022/11/01 11:32:29;;;;;;;74.28;51.90;;;18.40;77.60;;;;;;4940290;28;91608;-53
2022/11/01 11:35:13;;;;;;;72.60;51.45;;;18.40;77.70;;;;;;4948689;28;94282;-51
2022/11/01 11:37:49;;;;;;;76.28;51.55;;;18.40;77.70;;;;;;4953781;28;90133;-53
2022/11/01 11:40:42;;;;;;;72.88;51.30;;;18.40;77.80;;;;;;4944800;28;90368;-54
2022/11/01 11:43:21;;;;;;;72.50;51.47;;;18.40;77.80;;;;;;4953346;28;90363;-54
2022/11/01 11:46:22;;;;;;;72.75;51.30;;;18.40;77.80;;;;;;4951819;28;89817;-53
2022/11/01 11:48:52;;;;;;;72.70;51.33;;;18.40;77.80;;;;;;4953507;28;89361;-53
2022/11/01 11:51:23;;;;;;;72.50;51.30;;;18.40;77.90;;;;;;4946533;28;92132;-54
2022/11/01 11:54:17;;;;;;;74.18;51.33;;;18.40;77.90;;;;;;4951014;28;90639;-51
2022/11/01 11:56:44;;;;;;;74.03;51.40;;;18.40;78.00;;;;;;4946081;28;90979;-50
2022/11/01 11:59:29;;;;;;;75.90;51.45;;;18.40;77.90;;;;;;4951739;28;92213;-51
2022/11/01 12:02:05;;;;;;;75.47;51.50;;;18.50;77.60;;;;;;4951362;28;92263;-50
2022/11/01 12:04:44;;;;;;;79.15;51.53;;;18.50;77.00;;;;;;4944662;28;91144;-53
2022/11/01 12:07:44;;;;;;;76.85;52.17;;;18.50;76.50;;;;;;4950437;28;90016;-51
2022/11/01 12:10:29;;;;;;;78.47;51.88;;;18.60;76.30;;;;;;4949646;28;90966;-53
2022/11/01 12:12:55;;;;;;;76.28;51.72;;;18.60;76.30;;;;;;4954500;28;90381;-53
2022/11/01 12:15:47;;;;;;;75.70;52.30;;;18.60;76.30;;;;;;4944265;28;90693;-51
2022/11/01 12:18:15;;;;;;;78.20;52.33;;;18.70;76.10;;;;;;4944839;28;89730;-52
2022/11/01 12:20:41;;;;;;;78.20;51.95;;;18.70;75.90;;;;;;4946277;28;90004;-53
2022/11/01 12:23:27;;;;;;;78.72;52.17;;;18.70;75.60;;;;;;4952426;28;91955;-50
2022/11/01 12:25:56;;;;;;;76.25;52.28;;;18.70;75.10;;;;;;4954304;28;91406;-51
2022/11/01 12:28:42;;;;;;;90.13;53.63;;;18.70;74.80;;;;;;4945662;28;90273;-52
2022/11/01 12:31:14;;;;;;;87.13;54.83;;;18.70;74.80;;;;;;4942385;28;91119;-51
2022/11/01 12:33:49;;;;;;;91.05;55.38;;;18.70;75.00;;;;;;4948310;28;92738;-50
2022/11/01 12:36:19;;;;;;;98.22;56.38;;;18.70;75.30;;;;;;4940576;28;93026;-53
2022/11/01 12:38:46;;;;;;;103.85;56.17;;;18.70;75.40;;;;;;4960500;28;90834;-53
2022/11/01 12:41:25;;;;;;;100.90;56.85;;;18.80;75.60;;;;;;4944800;28;89094;-49
2022/11/01 12:44:09;;;;;;;101.97;57.42;;;18.80;75.50;;;;;;4956660;28;94775;-49
2022/11/01 12:46:53;;;;;;;97.75;56.78;;;18.80;75.90;;;;;;4953948;28;90027;-49